Time;durP1;ratioP1;P1;durP2;ratioP2;P2;SDS_P1;SDS_P2;PMS_P1;PMS_P2;Temp;Humidity;BMP_temperature;BMP_pressure;BME280_temperature;BME280_humidity;BME280_pressure;Samples;Min_cycle;Max_cycle;Signal;HPM_P1;HPM_P2
2022/05/18 00:01:59;;;;;;;2.07;1.50;;;13.90;99.90;;;;;;4983783;28;20603;-53
2022/05/18 00:04:27;;;;;;;4.10;1.83;;;13.80;99.90;;;;;;4986704;28;20496;-53
2022/05/18 00:06:53;;;;;;;3.17;1.83;;;13.80;99.90;;;;;;4988250;28;20891;-53
2022/05/18 00:09:20;;;;;;;2.60;1.80;;;13.80;99.90;;;;;;4986893;28;20547;-53
2022/05/18 00:11:46;;;;;;;5.17;2.07;;;13.70;99.90;;;;;;4988648;28;20552;-53
2022/05/18 00:14:13;;;;;;;31.83;2.10;;;13.70;99.90;;;;;;4986007;28;21379;-53
2022/05/18 00:16:40;;;;;;;4.47;2.07;;;13.70;99.90;;;;;;4983961;28;20560;-53
2022/05/18 00:19:06;;;;;;;1.87;1.77;;;13.70;99.90;;;;;;4985348;28;20560;-53
2022/05/18 00:21:34;;;;;;;7.13;1.57;;;13.70;99.90;;;;;;4987844;28;20592;-53
2022/05/18 00:24:01;;;;;;;4.80;2.10;;;13.70;99.90;;;;;;4986998;28;20572;-53
2022/05/18 00:26:27;;;;;;;1.70;1.60;;;13.70;99.90;;;;;;4989339;28;20560;-52
2022/05/18 00:28:54;;;;;;;4.40;1.83;;;13.70;99.90;;;;;;4985574;28;21018;-53
2022/05/18 00:31:21;;;;;;;2.17;1.90;;;13.70;99.90;;;;;;4987064;28;20555;-53
2022/05/18 00:33:48;;;;;;;5.67;2.07;;;13.60;99.90;;;;;;4986766;28;20920;-52
2022/05/18 00:36:15;;;;;;;8.53;2.13;;;13.60;99.90;;;;;;4986580;28;20572;-52
2022/05/18 00:38:42;;;;;;;3.93;1.90;;;13.60;99.90;;;;;;4988139;28;20543;-53
2022/05/18 00:41:10;;;;;;;6.53;1.70;;;13.60;99.90;;;;;;4987153;28;20567;-53
2022/05/18 00:43:40;;;;;;;2.73;1.80;;;13.60;99.90;;;;;;4989055;28;20936;-53
2022/05/18 00:46:10;;;;;;;10.40;2.30;;;13.50;99.90;;;;;;4981951;28;20606;-53
2022/05/18 00:48:37;;;;;;;18.47;2.00;;;13.50;99.90;;;;;;4987048;28;20882;-53
2022/05/18 00:51:07;;;;;;;7.77;1.60;;;13.50;99.90;;;;;;4983781;28;20547;-53
2022/05/18 00:53:40;;;;;;;4.03;2.10;;;13.40;99.90;;;;;;4986778;28;21558;-52
2022/05/18 00:56:12;;;;;;;19.77;1.90;;;13.40;99.90;;;;;;4986352;28;20539;-53
2022/05/18 00:58:44;;;;;;;7.20;2.57;;;13.40;99.90;;;;;;4989739;28;20552;-52
2022/05/18 01:01:11;;;;;;;12.70;3.00;;;13.30;99.90;;;;;;4982925;28;20492;-52
2022/05/18 01:03:41;;;;;;;2.47;1.57;;;13.30;99.90;;;;;;4984091;28;20584;-54
2022/05/18 01:06:13;;;;;;;3.87;1.70;;;13.30;99.90;;;;;;4982797;28;20836;-53
2022/05/18 01:08:45;;;;;;;5.00;1.97;;;13.30;99.90;;;;;;4986444;28;21021;-52
2022/05/18 01:11:14;;;;;;;1.60;1.50;;;13.20;99.90;;;;;;4987197;28;20559;-51
2022/05/18 01:13:40;;;;;;;8.13;2.17;;;13.10;99.90;;;;;;4984970;28;20575;-52
2022/05/18 01:16:07;;;;;;;10.40;1.90;;;13.10;99.90;;;;;;4981432;28;21218;-53
2022/05/18 01:18:35;;;;;;;3.20;2.10;;;13.10;99.90;;;;;;4988253;28;20822;-53
2022/05/18 01:21:02;;;;;;;6.40;3.03;;;13.20;99.90;;;;;;4985706;28;20624;-53
2022/05/18 01:23:42;;;;;;;3.77;1.87;;;13.10;99.90;;;;;;4980905;28;20574;-52
2022/05/18 01:26:18;;;;;;;2.30;1.80;;;13.10;99.90;;;;;;4984264;28;20595;-53
2022/05/18 01:28:52;;;;;;;6.37;2.20;;;13.10;99.90;;;;;;4988412;28;21013;-53
2022/05/18 01:31:19;;;;;;;12.53;3.33;;;13.10;99.90;;;;;;4988089;28;20957;-52
2022/05/18 01:33:46;;;;;;;16.80;2.83;;;13.00;99.90;;;;;;4987143;28;20555;-52
2022/05/18 01:36:13;;;;;;;10.63;1.83;;;13.00;99.90;;;;;;4987199;28;20457;-52
2022/05/18 01:38:40;;;;;;;9.67;1.93;;;12.90;99.90;;;;;;4992505;28;20539;-53
2022/05/18 01:41:15;;;;;;;7.57;1.67;;;12.90;99.90;;;;;;4982438;28;20475;-54
2022/05/18 01:43:47;;;;;;;6.83;1.77;;;12.90;99.90;;;;;;4988596;28;20595;-53
2022/05/18 01:46:17;;;;;;;3.23;1.97;;;12.90;99.90;;;;;;4978586;28;20664;-53
2022/05/18 01:48:47;;;;;;;3.60;1.90;;;12.80;99.90;;;;;;4987837;28;20603;-54
2022/05/18 01:51:18;;;;;;;4.20;1.80;;;12.80;99.90;;;;;;4989345;28;20568;-52
2022/05/18 01:53:45;;;;;;;2.83;1.77;;;12.80;99.90;;;;;;4988710;28;20602;-51
2022/05/18 01:56:11;;;;;;;7.30;1.63;;;12.80;99.90;;;;;;4991739;28;20539;-53
2022/05/18 01:58:38;;;;;;;5.73;1.87;;;12.70;99.90;;;;;;4990688;28;21792;-53
2022/05/18 02:01:06;;;;;;;8.33;1.90;;;12.70;99.90;;;;;;4984739;28;21037;-52
2022/05/18 02:03:32;;;;;;;3.47;1.50;;;12.70;99.90;;;;;;4988362;28;20555;-52
2022/05/18 02:05:59;;;;;;;4.30;1.60;;;12.60;99.90;;;;;;4983935;28;20511;-51
2022/05/18 02:08:26;;;;;;;3.47;1.80;;;12.60;99.90;;;;;;4989250;28;20556;-53
2022/05/18 02:10:52;;;;;;;3.07;1.60;;;12.50;99.90;;;;;;4988280;28;20563;-53
2022/05/18 02:13:19;;;;;;;4.93;1.80;;;12.50;99.90;;;;;;4987551;28;20572;-53
2022/05/18 02:15:45;;;;;;;2.83;1.90;;;12.50;99.90;;;;;;4994543;28;20461;-52
2022/05/18 02:18:13;;;;;;;6.13;2.40;;;12.40;99.90;;;;;;4988944;28;20552;-52
2022/05/18 02:20:40;;;;;;;8.70;1.60;;;12.40;99.90;;;;;;4986767;28;20551;-51
2022/05/18 02:23:07;;;;;;;6.70;1.90;;;12.40;99.90;;;;;;4989597;28;20580;-52
2022/05/18 02:25:34;;;;;;;2.50;1.60;;;12.30;99.90;;;;;;4987530;28;20930;-52
2022/05/18 02:28:01;;;;;;;8.93;1.60;;;12.40;99.90;;;;;;4988005;28;20555;-52
2022/05/18 02:30:27;;;;;;;3.27;1.50;;;12.30;99.90;;;;;;4988293;28;20547;-53
2022/05/18 02:32:54;;;;;;;2.10;1.50;;;12.30;99.90;;;;;;4987153;28;20579;-53
2022/05/18 02:35:22;;;;;;;8.07;2.13;;;12.30;99.90;;;;;;4988626;28;20551;-52
2022/05/18 02:37:49;;;;;;;5.20;1.87;;;12.30;99.90;;;;;;4989487;28;20556;-52
2022/05/18 02:40:16;;;;;;;5.07;1.67;;;12.20;99.90;;;;;;4989005;28;20768;-53
2022/05/18 02:42:42;;;;;;;7.27;1.60;;;12.20;99.90;;;;;;4985457;28;20576;-52
2022/05/18 02:45:10;;;;;;;6.63;2.10;;;12.20;99.90;;;;;;4990599;28;20556;-51
2022/05/18 02:47:37;;;;;;;15.97;2.37;;;12.20;99.90;;;;;;4989917;28;20925;-53
2022/05/18 02:50:04;;;;;;;3.53;1.77;;;12.10;99.90;;;;;;4989664;28;20559;-52
2022/05/18 02:52:32;;;;;;;20.17;1.60;;;12.00;99.90;;;;;;4987109;28;20888;-53
2022/05/18 02:57:43;;;;;;;5.10;2.00;;;12.00;99.90;;;;;;4988980;28;20452;-53
2022/05/18 03:00:10;;;;;;;2.10;1.60;;;12.00;99.90;;;;;;4986658;28;20555;-53
2022/05/18 03:02:37;;;;;;;4.10;1.50;;;12.00;99.90;;;;;;4988223;28;20559;-53
2022/05/18 03:05:04;;;;;;;7.97;2.10;;;11.90;99.90;;;;;;4989868;28;21010;-53
2022/05/18 03:07:32;;;;;;;1.60;1.50;;;11.90;99.90;;;;;;4987463;28;20587;-53
2022/05/18 03:09:59;;;;;;;9.40;1.87;;;11.90;99.90;;;;;;4987761;28;20559;-53
2022/05/18 03:12:25;;;;;;;1.03;1.03;;;11.90;99.90;;;;;;4985554;28;20544;-53
2022/05/18 03:14:52;;;;;;;1.60;1.50;;;11.90;99.90;;;;;;4988171;28;20551;-52
2022/05/18 03:17:18;;;;;;;1.53;1.40;;;11.80;99.90;;;;;;4987757;28;20469;-52
2022/05/18 03:19:45;;;;;;;5.13;1.67;;;11.80;99.90;;;;;;4985190;28;20928;-52
2022/05/18 03:24:57;;;;;;;5.50;1.50;;;11.80;99.90;;;;;;4986961;28;20609;-52
2022/05/18 03:27:24;;;;;;;6.63;1.20;;;11.80;99.90;;;;;;4989789;28;20916;-52
2022/05/18 03:29:51;;;;;;;1.50;1.40;;;11.80;99.90;;;;;;4984273;28;21023;-51
2022/05/18 03:32:17;;;;;;;1.70;1.50;;;11.80;99.90;;;;;;4984642;28;20563;-52
2022/05/18 03:34:44;;;;;;;6.33;1.73;;;11.80;99.90;;;;;;4986881;28;21085;-52
2022/05/18 03:37:11;;;;;;;5.03;1.43;;;11.80;99.90;;;;;;4989500;28;21000;-52
2022/05/18 03:39:37;;;;;;;7.57;1.63;;;11.80;99.90;;;;;;4991674;28;20544;-52
2022/05/18 03:42:07;;;;;;;13.13;1.47;;;11.80;99.90;;;;;;4988030;28;20886;-53
2022/05/18 03:44:33;;;;;;;6.80;1.53;;;11.80;99.90;;;;;;4986438;28;20523;-53
2022/05/18 03:47:00;;;;;;;3.07;1.40;;;11.80;99.90;;;;;;4986568;28;21085;-53
2022/05/18 03:49:26;;;;;;;1.53;1.20;;;11.80;99.90;;;;;;4976069;28;20457;-52
2022/05/18 03:51:53;;;;;;;4.93;1.43;;;11.80;99.90;;;;;;4987522;28;20552;-52
2022/05/18 03:54:19;;;;;;;2.53;1.63;;;11.70;99.90;;;;;;4993072;28;20488;-52
2022/05/18 03:56:46;;;;;;;7.00;1.43;;;11.70;99.90;;;;;;4990658;28;20466;-52
2022/05/18 03:59:14;;;;;;;4.40;2.40;;;11.70;99.90;;;;;;4983540;28;20572;-52
2022/05/18 04:01:41;;;;;;;1.57;1.13;;;11.70;99.90;;;;;;4982997;28;20484;-52
2022/05/18 04:04:08;;;;;;;1.23;1.13;;;11.60;99.90;;;;;;4985203;28;20993;-53
2022/05/18 04:06:35;;;;;;;2.80;1.50;;;11.70;99.90;;;;;;4982869;28;20517;-52
2022/05/18 04:09:02;;;;;;;2.83;1.60;;;11.60;99.90;;;;;;4972779;28;22637;-52
2022/05/18 04:11:28;;;;;;;3.00;1.30;;;11.60;99.90;;;;;;4966206;28;20471;-51
2022/05/18 04:13:55;;;;;;;2.90;1.60;;;11.70;99.90;;;;;;4971194;28;20578;-52
2022/05/18 04:16:23;;;;;;;3.60;1.90;;;11.60;99.90;;;;;;4968797;28;20552;-52
2022/05/18 04:18:49;;;;;;;3.73;2.20;;;11.70;99.90;;;;;;4970788;28;20460;-53
2022/05/18 04:21:16;;;;;;;1.87;1.50;;;11.70;99.90;;;;;;4971289;28;21016;-52
2022/05/18 04:23:42;;;;;;;5.63;1.50;;;11.70;99.90;;;;;;4970744;28;20856;-52
2022/05/18 04:26:10;;;;;;;11.63;1.40;;;11.80;99.90;;;;;;4974231;28;20567;-54
2022/05/18 04:28:36;;;;;;;3.23;1.27;;;11.80;99.90;;;;;;4971605;28;20468;-53
2022/05/18 04:31:04;;;;;;;2.03;1.80;;;11.80;99.90;;;;;;4975297;28;20453;-54
2022/05/18 04:33:32;;;;;;;2.80;1.50;;;11.90;99.90;;;;;;4974458;28;20567;-53
2022/05/18 04:36:02;;;;;;;5.23;1.43;;;11.80;99.90;;;;;;4972225;28;20543;-53
2022/05/18 04:38:28;;;;;;;2.60;2.30;;;11.90;99.90;;;;;;4969705;28;20456;-53
2022/05/18 04:40:56;;;;;;;1.33;1.23;;;11.90;99.90;;;;;;4971041;28;21102;-53
2022/05/18 04:43:22;;;;;;;3.90;1.70;;;11.90;99.90;;;;;;4966356;28;20633;-52
2022/05/18 04:45:51;;;;;;;3.60;1.50;;;12.00;99.90;;;;;;4969146;28;20467;-53
2022/05/18 04:48:20;;;;;;;3.60;1.80;;;12.00;99.90;;;;;;4973890;28;20460;-53
2022/05/18 04:50:48;;;;;;;3.93;1.37;;;12.00;99.90;;;;;;4970072;28;21124;-53
2022/05/18 04:53:15;;;;;;;2.07;1.63;;;12.00;99.90;;;;;;4970969;28;20497;-53
2022/05/18 04:55:42;;;;;;;3.00;1.80;;;12.10;99.90;;;;;;4969804;28;20461;-54
2022/05/18 04:58:09;;;;;;;4.47;1.60;;;12.00;99.90;;;;;;4965059;28;20457;-53
2022/05/18 05:00:37;;;;;;;1.50;1.40;;;12.10;99.90;;;;;;4965529;28;21177;-53
2022/05/18 05:03:04;;;;;;;3.17;2.17;;;12.00;99.90;;;;;;4972652;28;20570;-53
2022/05/18 05:05:30;;;;;;;3.37;1.73;;;12.10;99.90;;;;;;4964796;28;21080;-53
2022/05/18 05:07:58;;;;;;;4.40;1.53;;;12.00;99.90;;;;;;4969399;28;20595;-53
2022/05/18 05:10:25;;;;;;;1.47;1.37;;;12.00;99.90;;;;;;4979155;28;20471;-52
2022/05/18 05:12:52;;;;;;;2.60;2.30;;;12.10;99.90;;;;;;4973520;28;20480;-52
2022/05/18 05:15:19;;;;;;;4.53;1.30;;;12.10;99.90;;;;;;4969318;28;20506;-52
2022/05/18 05:17:45;;;;;;;1.73;1.63;;;12.10;99.90;;;;;;4974481;28;20484;-52
2022/05/18 05:20:13;;;;;;;3.87;1.50;;;12.20;99.90;;;;;;4974355;28;20461;-53
2022/05/18 05:22:39;;;;;;;5.60;1.90;;;12.20;99.90;;;;;;4983073;28;20543;-53
2022/05/18 05:25:11;;;;;;;5.40;2.00;;;12.10;99.90;;;;;;4974078;28;20930;-52
2022/05/18 05:27:38;;;;;;;1.67;1.57;;;12.10;99.90;;;;;;4976000;28;20538;-52
2022/05/18 05:30:08;;;;;;;3.63;1.93;;;12.20;99.90;;;;;;4973604;28;20464;-52
2022/05/18 05:32:35;;;;;;;2.83;1.50;;;12.20;99.90;;;;;;4973244;28;20962;-52
2022/05/18 05:35:02;;;;;;;23.30;1.73;;;12.30;99.90;;;;;;4980564;28;20563;-53
2022/05/18 05:37:29;;;;;;;1.60;1.50;;;12.30;99.90;;;;;;4983255;28;20452;-51
2022/05/18 05:39:56;;;;;;;3.60;1.83;;;12.30;99.90;;;;;;4992504;28;20555;-52
2022/05/18 05:42:24;;;;;;;10.17;1.83;;;12.30;99.90;;;;;;4984165;28;20469;-51
2022/05/18 05:44:51;;;;;;;2.73;1.73;;;12.40;99.90;;;;;;4977162;28;20954;-51
2022/05/18 05:47:18;;;;;;;5.67;2.27;;;12.40;99.90;;;;;;4984006;28;20559;-52
2022/05/18 05:49:45;;;;;;;3.13;1.37;;;12.40;99.90;;;;;;4983492;28;21053;-52
2022/05/18 05:52:12;;;;;;;2.60;1.60;;;12.40;99.90;;;;;;4988159;28;20587;-52
2022/05/18 05:54:39;;;;;;;4.20;1.87;;;12.40;99.90;;;;;;4979536;28;20587;-52
2022/05/18 05:57:06;;;;;;;2.43;1.57;;;12.40;99.90;;;;;;4989798;28;20550;-52
2022/05/18 05:59:36;;;;;;;8.97;2.20;;;12.50;99.90;;;;;;4985149;28;20468;-52
2022/05/18 06:02:04;;;;;;;3.77;1.50;;;12.50;99.90;;;;;;4988524;28;20567;-52
2022/05/18 06:04:31;;;;;;;7.77;2.30;;;12.60;99.90;;;;;;4991264;28;20524;-52
2022/05/18 06:06:57;;;;;;;6.67;2.30;;;12.60;99.90;;;;;;4991385;28;20938;-53
2022/05/18 06:09:24;;;;;;;3.33;1.83;;;12.70;99.90;;;;;;4993689;28;20544;-53
2022/05/18 06:11:51;;;;;;;4.20;1.77;;;12.70;99.90;;;;;;4989111;28;20456;-52
2022/05/18 06:14:19;;;;;;;1.83;1.60;;;12.70;99.90;;;;;;4989293;28;20588;-52
2022/05/18 06:16:47;;;;;;;11.23;2.10;;;12.80;99.90;;;;;;4992648;28;21054;-54
2022/05/18 06:19:14;;;;;;;2.10;1.70;;;12.90;99.90;;;;;;4990500;28;20469;-52
2022/05/18 06:21:40;;;;;;;2.30;2.10;;;13.00;99.90;;;;;;4989344;28;20555;-52
2022/05/18 06:24:08;;;;;;;3.37;2.27;;;13.10;99.90;;;;;;4983830;28;20843;-52
2022/05/18 06:26:36;;;;;;;3.27;1.97;;;13.30;99.90;;;;;;4986222;28;20531;-52
2022/05/18 06:29:02;;;;;;;3.10;2.10;;;13.40;99.90;;;;;;4992084;28;20472;-52
2022/05/18 06:31:29;;;;;;;5.40;1.77;;;13.40;99.90;;;;;;4990550;28;20893;-52
2022/05/18 06:33:57;;;;;;;2.03;1.83;;;13.60;99.90;;;;;;4987298;28;20588;-52
2022/05/18 06:36:23;;;;;;;9.60;2.10;;;13.60;99.90;;;;;;4990871;28;20556;-52
2022/05/18 06:38:50;;;;;;;4.10;1.67;;;13.60;99.90;;;;;;4991669;28;20567;-52
2022/05/18 06:41:22;;;;;;;2.77;2.07;;;13.70;99.90;;;;;;4987441;28;20559;-53
2022/05/18 06:43:49;;;;;;;4.93;1.97;;;13.80;99.90;;;;;;4991157;28;20508;-52
2022/05/18 06:46:15;;;;;;;5.30;2.20;;;13.80;99.90;;;;;;4990650;28;20905;-52
2022/05/18 06:48:42;;;;;;;4.47;2.43;;;13.90;99.90;;;;;;4989621;28;20563;-52
2022/05/18 06:51:10;;;;;;;7.23;1.90;;;13.90;99.90;;;;;;4991011;28;20910;-53
2022/05/18 06:53:38;;;;;;;6.93;2.50;;;14.10;99.90;;;;;;4987606;28;20566;-53
2022/05/18 06:56:05;;;;;;;8.80;3.23;;;14.10;99.90;;;;;;4992839;28;20507;-51
2022/05/18 06:58:31;;;;;;;2.50;2.30;;;14.20;99.90;;;;;;4988281;28;20556;-52
2022/05/18 07:01:01;;;;;;;4.33;2.93;;;14.30;99.90;;;;;;4987262;28;20547;-51
2022/05/18 07:03:27;;;;;;;13.50;2.00;;;14.50;99.90;;;;;;4991927;28;20894;-52
2022/05/18 07:05:54;;;;;;;3.03;2.07;;;14.90;99.90;;;;;;4989576;28;20499;-53
2022/05/18 07:08:21;;;;;;;1.97;1.60;;;15.10;99.90;;;;;;4987773;28;20484;-54
2022/05/18 07:10:48;;;;;;;5.23;2.17;;;15.10;99.90;;;;;;4990621;28;20556;-51
2022/05/18 07:13:17;;;;;;;2.73;2.20;;;15.00;99.90;;;;;;4991870;28;20571;-52
2022/05/18 07:15:44;;;;;;;2.83;1.80;;;15.00;99.90;;;;;;4988305;28;20461;-51
2022/05/18 07:18:10;;;;;;;3.70;2.10;;;15.00;99.90;;;;;;4987098;28;20460;-52
2022/05/18 07:20:37;;;;;;;2.77;2.03;;;15.00;99.90;;;;;;4987109;28;20491;-54
2022/05/18 07:23:03;;;;;;;8.30;2.20;;;15.10;99.90;;;;;;4987876;28;20564;-53
2022/05/18 07:25:32;;;;;;;4.77;2.10;;;15.20;99.90;;;;;;4985214;28;20560;-52
2022/05/18 07:27:58;;;;;;;5.07;2.53;;;15.30;99.90;;;;;;4987187;28;20559;-52
2022/05/18 07:30:25;;;;;;;4.93;2.57;;;15.40;99.90;;;;;;4987130;28;20464;-52
2022/05/18 07:32:51;;;;;;;8.87;2.87;;;15.50;99.90;;;;;;4987900;28;20484;-52
2022/05/18 07:35:18;;;;;;;5.77;2.50;;;15.70;99.90;;;;;;4989919;28;20547;-53
2022/05/18 07:37:45;;;;;;;3.80;2.33;;;15.70;99.90;;;;;;4986664;28;20488;-51
2022/05/18 07:40:12;;;;;;;6.00;3.70;;;15.70;99.90;;;;;;4990005;28;20584;-53
2022/05/18 07:42:40;;;;;;;5.60;2.50;;;15.80;99.90;;;;;;4989034;28;20630;-53
2022/05/18 07:45:07;;;;;;;4.93;2.87;;;15.90;99.90;;;;;;4988575;28;20556;-53
2022/05/18 07:47:34;;;;;;;4.93;2.40;;;16.00;99.90;;;;;;4985720;28;20571;-52
2022/05/18 07:50:01;;;;;;;4.07;2.90;;;16.10;99.90;;;;;;4986876;28;20910;-53
2022/05/18 07:52:27;;;;;;;5.50;2.47;;;16.10;99.90;;;;;;4985028;28;20560;-51
2022/05/18 07:54:55;;;;;;;9.23;2.90;;;16.20;99.90;;;;;;4989591;28;20547;-52
2022/05/18 07:57:21;;;;;;;8.33;3.03;;;16.30;99.90;;;;;;4986679;28;20448;-53
2022/05/18 07:59:56;;;;;;;2.90;2.63;;;16.40;99.90;;;;;;4989171;28;20547;-52
2022/05/18 08:02:22;;;;;;;2.67;1.97;;;16.50;99.90;;;;;;4986926;28;20464;-53
2022/05/18 08:04:49;;;;;;;4.43;2.70;;;16.70;99.90;;;;;;4988549;28;20543;-53
2022/05/18 08:07:15;;;;;;;8.07;2.23;;;16.80;99.90;;;;;;4984736;28;20597;-52
2022/05/18 08:15:09;;;;;;;5.03;2.73;;;17.00;99.90;;;;;;4983480;28;20456;-53
2022/05/18 08:17:35;;;;;;;11.70;2.90;;;17.00;99.90;;;;;;4985084;28;20453;-51
2022/05/18 08:20:06;;;;;;;6.20;2.27;;;17.10;99.90;;;;;;4988214;28;21034;-53
2022/05/18 08:22:33;;;;;;;5.33;3.20;;;17.10;99.90;;;;;;4984908;28;20620;-52
2022/05/18 08:24:59;;;;;;;5.40;2.60;;;17.20;99.90;;;;;;4987273;28;20561;-52
2022/05/18 08:27:26;;;;;;;13.63;3.20;;;17.20;99.90;;;;;;4989528;28;20645;-52
2022/05/18 08:30:00;;;;;;;10.70;3.03;;;17.40;99.90;;;;;;4989390;28;20548;-52
2022/05/18 08:32:28;;;;;;;4.33;2.80;;;17.50;99.90;;;;;;4987841;28;20560;-52
2022/05/18 08:34:55;;;;;;;10.97;3.10;;;17.60;99.90;;;;;;4985669;28;20551;-51
2022/05/18 08:37:22;;;;;;;5.77;2.83;;;17.80;99.90;;;;;;4986746;28;20487;-52
2022/05/18 08:39:49;;;;;;;4.43;3.07;;;17.80;99.90;;;;;;4985549;28;20844;-52
2022/05/18 08:42:16;;;;;;;11.70;4.00;;;17.90;99.90;;;;;;4984517;28;20492;-52
2022/05/18 08:44:43;;;;;;;4.67;3.10;;;18.00;99.90;;;;;;4986173;28;20578;-54
2022/05/18 08:47:12;;;;;;;3.53;2.70;;;18.10;99.90;;;;;;4986036;28;20555;-52
2022/05/18 08:49:50;;;;;;;5.30;3.20;;;18.10;99.90;;;;;;4989221;28;21235;-52
2022/05/18 08:52:40;;;;;;;6.60;3.30;;;18.10;99.90;;;;;;4990934;28;20499;-52
2022/05/18 08:55:41;;;;;;;6.43;3.87;;;18.20;99.90;;;;;;4985094;28;20464;-51
2022/05/18 08:58:10;;;;;;;6.30;2.87;;;18.40;99.90;;;;;;4980840;28;20560;-53
2022/05/18 09:00:41;;;;;;;6.60;3.23;;;18.70;99.90;;;;;;4988147;28;20489;-52
2022/05/18 09:03:15;;;;;;;11.67;3.53;;;18.80;99.90;;;;;;4982215;28;20511;-52
2022/05/18 09:05:47;;;;;;;8.47;3.20;;;18.80;99.90;;;;;;4988619;28;20456;-52
2022/05/18 09:08:17;;;;;;;11.07;3.10;;;18.90;99.90;;;;;;4985804;28;20484;-53
2022/05/18 09:10:49;;;;;;;5.83;3.47;;;19.10;99.90;;;;;;4988161;28;20492;-52
2022/05/18 09:13:16;;;;;;;5.47;3.23;;;19.30;99.90;;;;;;4987154;28;20484;-53
2022/05/18 09:15:55;;;;;;;8.73;3.10;;;19.50;99.90;;;;;;4986565;28;20568;-52
2022/05/18 09:18:30;;;;;;;6.90;3.70;;;19.40;99.90;;;;;;4988600;28;20480;-52
2022/05/18 09:21:07;;;;;;;9.93;3.70;;;19.60;99.90;;;;;;4984310;28;21907;-52
2022/05/18 09:23:51;;;;;;;6.83;3.77;;;19.70;99.90;;;;;;4986626;28;20865;-52
2022/05/18 09:26:36;;;;;;;12.47;3.87;;;19.80;99.90;;;;;;4986410;28;20551;-52
2022/05/18 09:29:11;;;;;;;5.97;3.17;;;19.90;99.90;;;;;;4980139;28;20575;-52
2022/05/18 09:31:49;;;;;;;7.47;2.70;;;20.00;99.90;;;;;;4980343;28;20461;-51
2022/05/18 09:34:28;;;;;;;11.27;3.87;;;20.00;99.90;;;;;;4983221;28;20890;-52
2022/05/18 09:37:27;;;;;;;8.33;4.40;;;20.30;99.90;;;;;;4989079;28;20820;-52
2022/05/18 09:39:59;;;;;;;5.07;4.33;;;20.30;99.90;;;;;;4985112;28;20456;-52
2022/05/18 09:42:32;;;;;;;3.80;3.43;;;20.50;99.90;;;;;;4988997;28;20492;-52
2022/05/18 09:45:03;;;;;;;8.33;3.70;;;20.50;99.90;;;;;;4987463;28;20842;-53
2022/05/18 09:47:33;;;;;;;4.20;3.90;;;20.50;99.90;;;;;;4985325;28;20460;-53
2022/05/18 09:50:06;;;;;;;7.17;3.33;;;20.60;99.90;;;;;;4986830;28;20468;-53
2022/05/18 09:52:37;;;;;;;5.23;3.80;;;20.70;99.90;;;;;;4987789;28;20488;-53
2022/05/18 09:55:07;;;;;;;6.40;3.33;;;20.90;99.90;;;;;;4993827;28;20834;-51
2022/05/18 09:57:38;;;;;;;6.50;3.73;;;20.90;99.90;;;;;;4994381;28;20462;-52
2022/05/18 10:00:09;;;;;;;6.03;3.60;;;21.10;99.90;;;;;;4992242;28;20495;-53
2022/05/18 10:08:15;;;;;;;8.10;3.00;;;21.20;99.90;;;;;;4987009;28;20616;-53
2022/05/18 10:10:42;;;;;;;4.10;3.30;;;21.40;99.90;;;;;;4987856;28;20829;-51
2022/05/18 10:13:12;;;;;;;9.40;3.63;;;21.50;99.90;;;;;;4992016;28;21081;-54
2022/05/18 10:15:42;;;;;;;6.47;3.67;;;21.50;99.90;;;;;;4986836;28;20456;-52
2022/05/18 10:18:32;;;;;;;16.00;4.77;;;21.50;99.90;;;;;;4991380;28;20547;-53
2022/05/18 10:21:10;;;;;;;4.03;3.63;;;21.50;99.90;;;;;;4988743;28;20544;-53
2022/05/18 10:23:45;;;;;;;5.13;4.00;;;21.60;99.90;;;;;;4988375;28;20520;-54
2022/05/18 10:26:23;;;;;;;6.80;4.60;;;21.70;99.90;;;;;;4986085;28;20452;-53
2022/05/18 10:28:56;;;;;;;8.43;4.67;;;21.50;99.90;;;;;;4984649;28;20515;-53
2022/05/18 10:31:28;;;;;;;15.63;4.67;;;21.60;99.90;;;;;;4985716;28;20950;-53
2022/05/18 10:34:11;;;;;;;9.70;4.10;;;21.50;99.90;;;;;;4986028;28;20485;-52
2022/05/18 10:36:42;;;;;;;8.30;4.80;;;21.60;99.90;;;;;;4990933;28;20464;-53
2022/05/18 10:39:10;;;;;;;6.50;4.80;;;21.70;99.90;;;;;;4986528;28;20464;-53
2022/05/18 10:41:42;;;;;;;6.33;4.87;;;21.80;99.90;;;;;;4987862;28;20556;-54
2022/05/18 10:44:14;;;;;;;6.50;4.60;;;21.90;99.90;;;;;;4992298;28;20859;-54
2022/05/18 10:46:42;;;;;;;5.60;4.13;;;21.90;99.90;;;;;;4989473;28;20539;-52
2022/05/18 10:49:13;;;;;;;5.77;5.17;;;22.10;99.90;;;;;;4987822;28;20576;-53
2022/05/18 10:51:45;;;;;;;10.93;4.40;;;22.10;99.90;;;;;;4984708;28;20488;-53
2022/05/18 10:54:18;;;;;;;7.10;4.90;;;22.20;99.90;;;;;;4985906;28;20484;-52
2022/05/18 10:56:46;;;;;;;11.57;4.60;;;22.40;99.90;;;;;;4989178;28;20497;-53
2022/05/18 10:59:24;;;;;;;5.00;4.13;;;22.50;99.90;;;;;;4990888;28;20495;-53
2022/05/18 11:01:56;;;;;;;7.10;4.50;;;22.60;99.90;;;;;;4988397;28;20488;-52
2022/05/18 11:04:31;;;;;;;8.20;4.50;;;22.60;99.90;;;;;;4988370;28;20500;-52
2022/05/18 11:06:57;;;;;;;5.23;4.70;;;22.70;99.90;;;;;;4992293;28;20551;-52
2022/05/18 11:09:30;;;;;;;5.70;4.63;;;22.80;99.90;;;;;;4987083;28;20591;-53
2022/05/18 11:12:02;;;;;;;10.23;5.53;;;23.00;99.90;;;;;;4988526;28;20464;-53
2022/05/18 11:14:38;;;;;;;9.07;5.27;;;22.80;99.90;;;;;;4992027;28;20568;-52
2022/05/18 11:17:11;;;;;;;9.50;5.43;;;22.90;99.90;;;;;;4990310;28;20882;-52
2022/05/18 11:19:44;;;;;;;9.27;4.80;;;23.10;99.90;;;;;;4986666;28;20465;-52
2022/05/18 11:22:27;;;;;;;8.90;5.80;;;22.80;99.90;;;;;;4982402;28;20492;-51
2022/05/18 11:25:08;;;;;;;9.60;6.23;;;22.90;99.90;;;;;;4989530;28;20518;-52
2022/05/18 11:27:43;;;;;;;5.93;4.57;;;23.00;99.90;;;;;;4989162;28;20539;-53
2022/05/18 11:30:14;;;;;;;5.63;4.83;;;23.10;99.90;;;;;;4986799;28;20484;-52
2022/05/18 11:32:56;;;;;;;9.13;5.10;;;23.10;99.90;;;;;;4988213;28;20503;-53
2022/05/18 11:35:47;;;;;;;8.03;5.23;;;23.20;99.90;;;;;;4992499;28;20523;-52
2022/05/18 11:38:43;;;;;;;11.97;3.97;;;23.10;99.90;;;;;;4984199;28;20950;-53
2022/05/18 11:41:27;;;;;;;8.10;5.60;;;23.00;99.90;;;;;;4981124;28;20559;-52
2022/05/18 11:44:01;;;;;;;9.97;4.83;;;23.10;99.90;;;;;;4990745;28;21026;-53
2022/05/18 11:46:45;;;;;;;9.20;5.57;;;23.20;99.90;;;;;;4982181;28;20496;-54
2022/05/18 11:49:18;;;;;;;5.17;4.57;;;23.40;99.90;;;;;;4981314;28;20570;-54
2022/05/18 11:51:58;;;;;;;11.40;5.00;;;23.30;99.90;;;;;;4989046;28;20548;-53
2022/05/18 11:54:39;;;;;;;9.47;5.30;;;23.40;99.90;;;;;;4986397;28;20523;-53
2022/05/18 11:57:20;;;;;;;9.30;5.60;;;23.50;99.90;;;;;;4992169;28;20958;-52
2022/05/18 12:00:03;;;;;;;9.43;5.33;;;23.40;99.90;;;;;;4986174;28;20540;-53
2022/05/18 12:02:59;;;;;;;11.43;5.63;;;23.40;99.90;;;;;;4989351;28;20456;-54
2022/05/18 12:06:01;;;;;;;7.60;5.93;;;23.50;99.90;;;;;;4991032;28;20492;-53
2022/05/18 12:08:44;;;;;;;5.20;4.70;;;23.50;99.90;;;;;;4978405;28;20575;-53
2022/05/18 12:11:21;;;;;;;9.63;5.20;;;23.40;99.90;;;;;;4985633;28;20555;-53
2022/05/18 12:14:01;;;;;;;4.87;4.40;;;23.60;99.90;;;;;;4989594;28;20895;-52
2022/05/18 12:16:35;;;;;;;4.20;3.90;;;23.70;99.90;;;;;;4988309;28;20543;-52
2022/05/18 12:19:13;;;;;;;9.50;3.93;;;23.80;99.90;;;;;;4989009;28;20551;-54
2022/05/18 12:21:43;;;;;;;17.63;5.03;;;23.80;99.90;;;;;;4985305;28;20551;-52
2022/05/18 12:24:11;;;;;;;4.23;3.67;;;23.70;99.90;;;;;;4980467;28;20570;-54
2022/05/18 12:26:42;;;;;;;6.60;3.73;;;23.90;99.90;;;;;;4987954;28;20551;-52
2022/05/18 12:29:12;;;;;;;8.77;3.93;;;24.00;99.90;;;;;;4985224;28;20607;-53
2022/05/18 12:31:39;;;;;;;6.73;3.70;;;24.00;99.90;;;;;;4985762;28;20555;-51
2022/05/18 12:34:16;;;;;;;4.17;3.63;;;24.00;99.90;;;;;;4987366;28;21014;-54
2022/05/18 12:36:46;;;;;;;4.53;4.13;;;24.00;99.90;;;;;;4985406;28;20555;-54
2022/05/18 12:39:15;;;;;;;4.47;4.07;;;24.10;99.90;;;;;;4983960;28;20543;-53
2022/05/18 12:41:45;;;;;;;4.47;4.07;;;23.90;99.90;;;;;;4987936;28;20575;-53
2022/05/18 12:44:22;;;;;;;11.53;3.83;;;23.90;99.90;;;;;;4979809;28;20481;-52
2022/05/18 12:46:54;;;;;;;12.73;4.17;;;23.80;99.90;;;;;;4988104;28;20543;-51
2022/05/18 12:49:29;;;;;;;6.07;3.63;;;23.90;99.90;;;;;;4983086;28;20567;-52
2022/05/18 12:52:02;;;;;;;7.20;3.83;;;24.00;99.90;;;;;;4985833;28;20456;-52
2022/05/18 12:54:38;;;;;;;7.17;3.93;;;24.20;99.90;;;;;;4986784;28;20487;-52
2022/05/18 12:57:45;;;;;;;5.23;3.70;;;24.20;99.90;;;;;;4988856;28;20547;-52
2022/05/18 13:00:46;;;;;;;4.00;3.60;;;24.20;99.90;;;;;;4981630;28;20563;-52
2022/05/18 13:03:44;;;;;;;20.23;4.70;;;24.20;99.90;;;;;;4978783;28;20492;-52
2022/05/18 13:06:16;;;;;;;9.17;4.40;;;24.10;99.90;;;;;;4988901;28;20749;-52
2022/05/18 13:09:01;;;;;;;18.87;5.60;;;24.10;99.90;;;;;;4984610;28;20566;-51
2022/05/18 13:11:34;;;;;;;6.70;3.83;;;24.20;99.90;;;;;;4986851;28;20465;-52
2022/05/18 13:14:18;;;;;;;4.93;3.63;;;24.20;99.90;;;;;;4984564;28;20559;-52
2022/05/18 13:17:13;;;;;;;7.40;4.10;;;24.30;99.90;;;;;;4983580;28;20519;-51
2022/05/18 13:19:46;;;;;;;7.13;4.70;;;24.40;99.90;;;;;;4973394;28;20536;-52